sensor_id;sensor_type;location;lat;lon;timestamp;P1;durP1;ratioP1;P2;durP2;ratioP2
8247;SDS011;4164;49.844;8.830;2022-07-29T00:01:25;6.77;;;2.60;;
8247;SDS011;4164;49.844;8.830;2022-07-29T00:03:51;4.20;;;3.00;;
8247;SDS011;4164;49.844;8.830;2022-07-29T00:06:16;5.47;;;2.63;;
8247;SDS011;4164;49.844;8.830;2022-07-29T00:08:42;4.03;;;2.77;;
8247;SDS011;4164;49.844;8.830;2022-07-29T00:11:07;4.37;;;2.60;;
8247;SDS011;4164;49.844;8.830;2022-07-29T00:13:33;10.80;;;3.50;;
8247;SDS011;4164;49.844;8.830;2022-07-29T00:15:59;2.93;;;2.43;;
8247;SDS011;4164;49.844;8.830;2022-07-29T00:18:24;3.67;;;2.70;;
8247;SDS011;4164;49.844;8.830;2022-07-29T00:20:50;5.63;;;2.50;;
8247;SDS011;4164;49.844;8.830;2022-07-29T00:23:15;2.60;;;2.37;;
8247;SDS011;4164;49.844;8.830;2022-07-29T00:25:41;3.73;;;2.87;;
8247;SDS011;4164;49.844;8.830;2022-07-29T00:28:06;6.17;;;2.60;;
8247;SDS011;4164;49.844;8.830;2022-07-29T00:30:32;4.43;;;2.97;;
8247;SDS011;4164;49.844;8.830;2022-07-29T00:32:57;4.37;;;2.87;;
8247;SDS011;4164;49.844;8.830;2022-07-29T00:35:23;5.27;;;3.23;;
8247;SDS011;4164;49.844;8.830;2022-07-29T00:38:07;5.30;;;2.80;;
8247;SDS011;4164;49.844;8.830;2022-07-29T00:40:32;5.40;;;2.80;;
8247;SDS011;4164;49.844;8.830;2022-07-29T00:42:58;5.67;;;3.17;;
8247;SDS011;4164;49.844;8.830;2022-07-29T00:45:23;6.00;;;2.40;;
8247;SDS011;4164;49.844;8.830;2022-07-29T00:47:49;5.10;;;2.77;;
8247;SDS011;4164;49.844;8.830;2022-07-29T00:50:15;7.07;;;2.97;;
8247;SDS011;4164;49.844;8.830;2022-07-29T00:52:41;3.63;;;2.57;;
8247;SDS011;4164;49.844;8.830;2022-07-29T00:55:08;2.97;;;2.67;;
8247;SDS011;4164;49.844;8.830;2022-07-29T00:57:35;3.10;;;2.70;;
8247;SDS011;4164;49.844;8.830;2022-07-29T01:00:05;4.40;;;2.80;;
8247;SDS011;4164;49.844;8.830;2022-07-29T01:02:33;5.97;;;3.10;;
8247;SDS011;4164;49.844;8.830;2022-07-29T01:04:58;3.13;;;2.57;;
8247;SDS011;4164;49.844;8.830;2022-07-29T01:07:24;3.23;;;2.60;;
8247;SDS011;4164;49.844;8.830;2022-07-29T01:09:51;5.67;;;2.70;;
8247;SDS011;4164;49.844;8.830;2022-07-29T01:12:25;9.70;;;3.10;;
8247;SDS011;4164;49.844;8.830;2022-07-29T01:14:52;6.13;;;2.47;;
8247;SDS011;4164;49.844;8.830;2022-07-29T01:20:17;8.67;;;2.73;;
8247;SDS011;4164;49.844;8.830;2022-07-29T01:28:30;6.20;;;2.60;;
8247;SDS011;4164;49.844;8.830;2022-07-29T01:31:03;4.20;;;2.40;;
8247;SDS011;4164;49.844;8.830;2022-07-29T01:33:31;4.00;;;2.67;;
8247;SDS011;4164;49.844;8.830;2022-07-29T01:36:36;3.57;;;2.40;;
8247;SDS011;4164;49.844;8.830;2022-07-29T01:39:12;2.33;;;2.10;;
8247;SDS011;4164;49.844;8.830;2022-07-29T01:45:07;4.57;;;2.27;;
8247;SDS011;4164;49.844;8.830;2022-07-29T01:47:42;3.10;;;2.20;;
8247;SDS011;4164;49.844;8.830;2022-07-29T01:50:12;6.00;;;1.77;;
8247;SDS011;4164;49.844;8.830;2022-07-29T01:52:49;5.37;;;2.40;;
8247;SDS011;4164;49.844;8.830;2022-07-29T01:55:25;5.10;;;2.33;;
8247;SDS011;4164;49.844;8.830;2022-07-29T01:57:54;8.10;;;2.40;;
8247;SDS011;4164;49.844;8.830;2022-07-29T02:00:22;6.03;;;2.03;;
8247;SDS011;4164;49.844;8.830;2022-07-29T02:02:51;4.27;;;2.37;;
8247;SDS011;4164;49.844;8.830;2022-07-29T02:05:19;4.13;;;2.00;;
8247;SDS011;4164;49.844;8.830;2022-07-29T02:07:48;5.23;;;2.10;;
8247;SDS011;4164;49.844;8.830;2022-07-29T02:10:15;4.60;;;2.00;;
8247;SDS011;4164;49.844;8.830;2022-07-29T02:12:43;9.73;;;2.50;;
8247;SDS011;4164;49.844;8.830;2022-07-29T02:15:11;3.00;;;2.00;;
8247;SDS011;4164;49.844;8.830;2022-07-29T02:17:39;3.97;;;2.20;;
8247;SDS011;4164;49.844;8.830;2022-07-29T02:20:08;2.53;;;1.90;;
8247;SDS011;4164;49.844;8.830;2022-07-29T02:22:35;4.67;;;2.83;;
8247;SDS011;4164;49.844;8.830;2022-07-29T02:25:04;4.43;;;2.37;;
8247;SDS011;4164;49.844;8.830;2022-07-29T02:27:31;7.70;;;2.40;;
8247;SDS011;4164;49.844;8.830;2022-07-29T02:29:59;6.27;;;2.20;;
8247;SDS011;4164;49.844;8.830;2022-07-29T02:32:26;7.27;;;2.60;;
8247;SDS011;4164;49.844;8.830;2022-07-29T02:34:53;10.07;;;2.80;;
8247;SDS011;4164;49.844;8.830;2022-07-29T02:37:20;3.40;;;2.33;;
8247;SDS011;4164;49.844;8.830;2022-07-29T02:39:46;3.03;;;2.20;;
8247;SDS011;4164;49.844;8.830;2022-07-29T02:42:15;5.57;;;2.87;;
8247;SDS011;4164;49.844;8.830;2022-07-29T02:44:42;4.33;;;2.90;;
8247;SDS011;4164;49.844;8.830;2022-07-29T02:47:24;4.80;;;2.40;;
8247;SDS011;4164;49.844;8.830;2022-07-29T02:50:02;5.77;;;2.60;;
8247;SDS011;4164;49.844;8.830;2022-07-29T02:55:40;4.13;;;2.63;;
8247;SDS011;4164;49.844;8.830;2022-07-29T02:58:13;6.63;;;2.60;;
8247;SDS011;4164;49.844;8.830;2022-07-29T03:00:47;4.67;;;2.37;;
8247;SDS011;4164;49.844;8.830;2022-07-29T03:03:16;4.70;;;2.47;;
8247;SDS011;4164;49.844;8.830;2022-07-29T03:05:43;8.90;;;3.00;;
8247;SDS011;4164;49.844;8.830;2022-07-29T03:08:10;7.77;;;2.90;;
8247;SDS011;4164;49.844;8.830;2022-07-29T03:10:37;5.00;;;2.10;;
8247;SDS011;4164;49.844;8.830;2022-07-29T03:13:05;4.13;;;2.30;;
8247;SDS011;4164;49.844;8.830;2022-07-29T03:15:32;6.23;;;2.87;;
8247;SDS011;4164;49.844;8.830;2022-07-29T03:17:59;2.97;;;2.43;;
8247;SDS011;4164;49.844;8.830;2022-07-29T03:20:25;9.47;;;2.77;;
8247;SDS011;4164;49.844;8.830;2022-07-29T03:22:50;6.37;;;2.70;;
8247;SDS011;4164;49.844;8.830;2022-07-29T03:25:17;5.43;;;2.40;;
8247;SDS011;4164;49.844;8.830;2022-07-29T03:27:44;3.53;;;2.70;;
8247;SDS011;4164;49.844;8.830;2022-07-29T03:30:11;3.53;;;2.47;;
8247;SDS011;4164;49.844;8.830;2022-07-29T03:32:38;4.33;;;2.67;;
8247;SDS011;4164;49.844;8.830;2022-07-29T03:35:04;4.37;;;2.80;;
8247;SDS011;4164;49.844;8.830;2022-07-29T03:37:31;6.47;;;2.80;;
8247;SDS011;4164;49.844;8.830;2022-07-29T03:39:58;4.10;;;2.60;;
8247;SDS011;4164;49.844;8.830;2022-07-29T03:42:30;4.33;;;2.47;;
8247;SDS011;4164;49.844;8.830;2022-07-29T03:44:58;4.03;;;3.20;;
8247;SDS011;4164;49.844;8.830;2022-07-29T03:47:28;3.73;;;2.77;;
8247;SDS011;4164;49.844;8.830;2022-07-29T03:49:57;4.67;;;2.90;;
8247;SDS011;4164;49.844;8.830;2022-07-29T03:52:27;5.70;;;3.00;;
8247;SDS011;4164;49.844;8.830;2022-07-29T03:54:53;5.30;;;2.87;;
8247;SDS011;4164;49.844;8.830;2022-07-29T03:57:20;5.87;;;2.90;;
8247;SDS011;4164;49.844;8.830;2022-07-29T03:59:48;6.67;;;2.67;;
8247;SDS011;4164;49.844;8.830;2022-07-29T04:02:15;7.07;;;3.00;;
8247;SDS011;4164;49.844;8.830;2022-07-29T04:04:41;5.83;;;2.60;;
8247;SDS011;4164;49.844;8.830;2022-07-29T04:07:07;3.57;;;3.27;;
8247;SDS011;4164;49.844;8.830;2022-07-29T04:09:37;5.70;;;3.20;;
8247;SDS011;4164;49.844;8.830;2022-07-29T04:12:02;9.10;;;3.00;;
8247;SDS011;4164;49.844;8.830;2022-07-29T04:14:28;7.53;;;3.30;;
8247;SDS011;4164;49.844;8.830;2022-07-29T04:16:54;4.30;;;2.73;;
8247;SDS011;4164;49.844;8.830;2022-07-29T04:19:20;7.97;;;3.33;;
8247;SDS011;4164;49.844;8.830;2022-07-29T04:21:45;3.47;;;2.70;;
8247;SDS011;4164;49.844;8.830;2022-07-29T04:24:11;4.70;;;2.80;;
8247;SDS011;4164;49.844;8.830;2022-07-29T04:26:36;5.10;;;3.00;;
8247;SDS011;4164;49.844;8.830;2022-07-29T04:29:02;6.50;;;2.63;;
8247;SDS011;4164;49.844;8.830;2022-07-29T04:31:27;3.03;;;2.40;;
8247;SDS011;4164;49.844;8.830;2022-07-29T04:33:53;2.77;;;2.57;;
8247;SDS011;4164;49.844;8.830;2022-07-29T04:36:18;5.80;;;2.73;;
8247;SDS011;4164;49.844;8.830;2022-07-29T04:38:44;7.93;;;2.90;;
8247;SDS011;4164;49.844;8.830;2022-07-29T04:41:09;4.03;;;2.87;;
8247;SDS011;4164;49.844;8.830;2022-07-29T04:43:35;3.70;;;2.60;;
8247;SDS011;4164;49.844;8.830;2022-07-29T04:46:01;7.43;;;3.10;;
8247;SDS011;4164;49.844;8.830;2022-07-29T04:48:28;8.10;;;2.87;;
8247;SDS011;4164;49.844;8.830;2022-07-29T04:50:53;3.53;;;2.63;;
8247;SDS011;4164;49.844;8.830;2022-07-29T04:53:19;4.37;;;2.80;;
8247;SDS011;4164;49.844;8.830;2022-07-29T04:55:44;9.63;;;3.07;;
8247;SDS011;4164;49.844;8.830;2022-07-29T04:58:10;4.80;;;2.70;;
8247;SDS011;4164;49.844;8.830;2022-07-29T05:00:36;7.47;;;3.37;;
8247;SDS011;4164;49.844;8.830;2022-07-29T05:03:02;7.17;;;4.60;;
8247;SDS011;4164;49.844;8.830;2022-07-29T05:05:28;8.43;;;3.67;;
8247;SDS011;4164;49.844;8.830;2022-07-29T05:07:54;5.03;;;3.57;;
8247;SDS011;4164;49.844;8.830;2022-07-29T05:10:20;4.33;;;3.03;;
8247;SDS011;4164;49.844;8.830;2022-07-29T05:12:48;5.50;;;3.23;;
8247;SDS011;4164;49.844;8.830;2022-07-29T05:15:14;4.40;;;2.90;;
8247;SDS011;4164;49.844;8.830;2022-07-29T05:17:40;4.77;;;2.83;;
8247;SDS011;4164;49.844;8.830;2022-07-29T05:20:05;5.57;;;2.67;;
8247;SDS011;4164;49.844;8.830;2022-07-29T05:22:32;7.60;;;3.53;;
8247;SDS011;4164;49.844;8.830;2022-07-29T05:24:57;5.47;;;3.07;;
8247;SDS011;4164;49.844;8.830;2022-07-29T05:27:23;7.77;;;3.00;;
8247;SDS011;4164;49.844;8.830;2022-07-29T05:29:48;7.27;;;2.87;;
8247;SDS011;4164;49.844;8.830;2022-07-29T05:32:14;4.43;;;2.83;;
8247;SDS011;4164;49.844;8.830;2022-07-29T05:34:40;16.00;;;3.10;;
8247;SDS011;4164;49.844;8.830;2022-07-29T05:37:06;7.73;;;3.03;;
8247;SDS011;4164;49.844;8.830;2022-07-29T05:39:32;9.87;;;2.67;;
8247;SDS011;4164;49.844;8.830;2022-07-29T05:41:57;8.20;;;2.90;;
8247;SDS011;4164;49.844;8.830;2022-07-29T05:44:23;6.93;;;3.13;;
8247;SDS011;4164;49.844;8.830;2022-07-29T05:46:48;9.03;;;2.60;;
8247;SDS011;4164;49.844;8.830;2022-07-29T05:49:14;5.63;;;3.03;;
8247;SDS011;4164;49.844;8.830;2022-07-29T05:51:40;5.97;;;2.93;;
8247;SDS011;4164;49.844;8.830;2022-07-29T05:54:05;8.23;;;3.03;;
8247;SDS011;4164;49.844;8.830;2022-07-29T05:56:31;6.93;;;2.93;;
8247;SDS011;4164;49.844;8.830;2022-07-29T05:58:56;6.03;;;2.90;;
8247;SDS011;4164;49.844;8.830;2022-07-29T06:01:22;5.80;;;2.40;;
8247;SDS011;4164;49.844;8.830;2022-07-29T06:03:48;6.90;;;2.87;;
8247;SDS011;4164;49.844;8.830;2022-07-29T06:06:13;7.20;;;3.03;;
8247;SDS011;4164;49.844;8.830;2022-07-29T06:08:39;7.00;;;2.87;;
8247;SDS011;4164;49.844;8.830;2022-07-29T06:11:05;3.90;;;2.67;;
8247;SDS011;4164;49.844;8.830;2022-07-29T06:13:31;4.90;;;2.50;;
8247;SDS011;4164;49.844;8.830;2022-07-29T06:15:56;4.40;;;2.80;;
8247;SDS011;4164;49.844;8.830;2022-07-29T06:18:22;4.57;;;2.70;;
8247;SDS011;4164;49.844;8.830;2022-07-29T06:20:51;6.17;;;2.80;;
8247;SDS011;4164;49.844;8.830;2022-07-29T06:23:18;4.20;;;2.80;;
8247;SDS011;4164;49.844;8.830;2022-07-29T06:25:44;5.53;;;3.00;;
8247;SDS011;4164;49.844;8.830;2022-07-29T06:28:09;4.50;;;3.37;;
8247;SDS011;4164;49.844;8.830;2022-07-29T06:30:35;5.20;;;2.73;;
8247;SDS011;4164;49.844;8.830;2022-07-29T06:33:01;4.03;;;2.50;;
8247;SDS011;4164;49.844;8.830;2022-07-29T06:35:27;7.40;;;3.20;;
8247;SDS011;4164;49.844;8.830;2022-07-29T06:37:53;3.90;;;2.80;;
8247;SDS011;4164;49.844;8.830;2022-07-29T06:40:19;5.37;;;2.90;;
8247;SDS011;4164;49.844;8.830;2022-07-29T06:43:03;6.47;;;3.10;;
8247;SDS011;4164;49.844;8.830;2022-07-29T06:45:29;6.67;;;3.00;;
8247;SDS011;4164;49.844;8.830;2022-07-29T06:47:54;6.00;;;3.07;;
8247;SDS011;4164;49.844;8.830;2022-07-29T06:50:20;5.87;;;3.37;;
8247;SDS011;4164;49.844;8.830;2022-07-29T06:52:46;3.67;;;3.27;;
8247;SDS011;4164;49.844;8.830;2022-07-29T06:55:12;5.70;;;3.17;;
8247;SDS011;4164;49.844;8.830;2022-07-29T06:57:39;4.50;;;3.50;;
8247;SDS011;4164;49.844;8.830;2022-07-29T07:00:04;9.00;;;3.00;;
8247;SDS011;4164;49.844;8.830;2022-07-29T07:02:30;3.77;;;3.00;;
8247;SDS011;4164;49.844;8.830;2022-07-29T07:04:56;7.07;;;3.30;;
8247;SDS011;4164;49.844;8.830;2022-07-29T07:07:23;6.20;;;3.00;;
8247;SDS011;4164;49.844;8.830;2022-07-29T07:09:49;8.37;;;3.10;;
8247;SDS011;4164;49.844;8.830;2022-07-29T07:12:15;6.67;;;3.30;;
8247;SDS011;4164;49.844;8.830;2022-07-29T07:14:40;5.90;;;3.50;;
8247;SDS011;4164;49.844;8.830;2022-07-29T07:17:06;6.07;;;3.03;;
8247;SDS011;4164;49.844;8.830;2022-07-29T07:19:32;7.50;;;2.63;;
8247;SDS011;4164;49.844;8.830;2022-07-29T07:21:58;7.57;;;3.20;;
8247;SDS011;4164;49.844;8.830;2022-07-29T07:24:24;4.07;;;2.80;;
8247;SDS011;4164;49.844;8.830;2022-07-29T07:26:49;6.67;;;3.23;;
8247;SDS011;4164;49.844;8.830;2022-07-29T07:29:15;7.93;;;2.80;;
8247;SDS011;4164;49.844;8.830;2022-07-29T07:31:40;6.37;;;3.27;;
8247;SDS011;4164;49.844;8.830;2022-07-29T07:34:06;4.27;;;3.13;;
8247;SDS011;4164;49.844;8.830;2022-07-29T07:36:31;6.50;;;3.30;;
8247;SDS011;4164;49.844;8.830;2022-07-29T07:38:57;8.07;;;3.20;;
8247;SDS011;4164;49.844;8.830;2022-07-29T07:41:22;5.00;;;2.93;;
8247;SDS011;4164;49.844;8.830;2022-07-29T07:43:48;5.37;;;2.87;;
8247;SDS011;4164;49.844;8.830;2022-07-29T07:46:14;7.30;;;3.20;;
8247;SDS011;4164;49.844;8.830;2022-07-29T07:48:40;5.67;;;2.87;;
8247;SDS011;4164;49.844;8.830;2022-07-29T07:51:05;7.07;;;3.50;;
8247;SDS011;4164;49.844;8.830;2022-07-29T07:53:32;7.27;;;3.17;;
8247;SDS011;4164;49.844;8.830;2022-07-29T07:55:58;8.27;;;3.40;;
8247;SDS011;4164;49.844;8.830;2022-07-29T07:58:24;5.00;;;2.83;;
8247;SDS011;4164;49.844;8.830;2022-07-29T08:00:52;5.03;;;3.03;;
8247;SDS011;4164;49.844;8.830;2022-07-29T08:03:18;7.60;;;3.33;;
8247;SDS011;4164;49.844;8.830;2022-07-29T08:05:43;7.53;;;3.20;;
8247;SDS011;4164;49.844;8.830;2022-07-29T08:08:13;5.23;;;3.23;;
8247;SDS011;4164;49.844;8.830;2022-07-29T08:10:38;3.27;;;2.97;;
8247;SDS011;4164;49.844;8.830;2022-07-29T08:13:23;4.80;;;3.10;;
8247;SDS011;4164;49.844;8.830;2022-07-29T08:15:50;4.90;;;3.13;;
8247;SDS011;4164;49.844;8.830;2022-07-29T08:18:36;7.37;;;3.07;;
8247;SDS011;4164;49.844;8.830;2022-07-29T08:21:03;4.97;;;3.43;;
8247;SDS011;4164;49.844;8.830;2022-07-29T08:23:28;7.33;;;3.83;;
8247;SDS011;4164;49.844;8.830;2022-07-29T08:26:03;6.57;;;3.20;;
8247;SDS011;4164;49.844;8.830;2022-07-29T08:28:30;4.53;;;2.90;;
8247;SDS011;4164;49.844;8.830;2022-07-29T08:30:55;7.67;;;3.50;;
8247;SDS011;4164;49.844;8.830;2022-07-29T08:33:21;6.03;;;3.20;;
8247;SDS011;4164;49.844;8.830;2022-07-29T08:35:47;5.00;;;3.10;;
8247;SDS011;4164;49.844;8.830;2022-07-29T08:38:12;8.20;;;3.37;;
8247;SDS011;4164;49.844;8.830;2022-07-29T08:40:39;5.77;;;2.80;;
8247;SDS011;4164;49.844;8.830;2022-07-29T08:43:05;6.47;;;3.53;;
8247;SDS011;4164;49.844;8.830;2022-07-29T08:45:35;5.40;;;3.00;;
8247;SDS011;4164;49.844;8.830;2022-07-29T08:48:13;8.43;;;3.70;;
8247;SDS011;4164;49.844;8.830;2022-07-29T08:50:41;4.03;;;3.10;;
8247;SDS011;4164;49.844;8.830;2022-07-29T08:53:08;4.33;;;3.10;;
8247;SDS011;4164;49.844;8.830;2022-07-29T08:55:38;4.33;;;3.13;;
8247;SDS011;4164;49.844;8.830;2022-07-29T08:58:06;6.97;;;3.20;;
8247;SDS011;4164;49.844;8.830;2022-07-29T09:00:32;4.07;;;3.20;;
8247;SDS011;4164;49.844;8.830;2022-07-29T09:03:00;4.53;;;3.07;;
8247;SDS011;4164;49.844;8.830;2022-07-29T09:05:26;7.80;;;3.53;;
8247;SDS011;4164;49.844;8.830;2022-07-29T09:07:53;5.07;;;3.17;;
8247;SDS011;4164;49.844;8.830;2022-07-29T09:10:19;2.90;;;2.60;;
8247;SDS011;4164;49.844;8.830;2022-07-29T09:12:45;4.77;;;3.37;;
8247;SDS011;4164;49.844;8.830;2022-07-29T09:15:11;4.73;;;3.23;;
8247;SDS011;4164;49.844;8.830;2022-07-29T09:17:40;8.07;;;3.37;;
8247;SDS011;4164;49.844;8.830;2022-07-29T09:20:10;3.73;;;3.17;;
8247;SDS011;4164;49.844;8.830;2022-07-29T09:22:38;4.83;;;3.53;;
8247;SDS011;4164;49.844;8.830;2022-07-29T09:25:04;3.57;;;3.00;;
8247;SDS011;4164;49.844;8.830;2022-07-29T09:27:30;5.10;;;3.50;;
8247;SDS011;4164;49.844;8.830;2022-07-29T09:29:56;3.20;;;2.90;;
8247;SDS011;4164;49.844;8.830;2022-07-29T09:32:33;3.57;;;3.03;;
8247;SDS011;4164;49.844;8.830;2022-07-29T09:35:19;5.70;;;3.20;;
8247;SDS011;4164;49.844;8.830;2022-07-29T09:37:47;5.83;;;3.23;;
8247;SDS011;4164;49.844;8.830;2022-07-29T09:40:13;6.10;;;3.60;;
8247;SDS011;4164;49.844;8.830;2022-07-29T09:42:43;4.97;;;3.33;;
8247;SDS011;4164;49.844;8.830;2022-07-29T09:45:10;4.73;;;3.10;;
8247;SDS011;4164;49.844;8.830;2022-07-29T09:47:44;5.17;;;3.47;;
8247;SDS011;4164;49.844;8.830;2022-07-29T09:50:12;5.27;;;3.33;;
8247;SDS011;4164;49.844;8.830;2022-07-29T09:52:45;4.47;;;3.13;;
8247;SDS011;4164;49.844;8.830;2022-07-29T09:55:12;3.47;;;3.07;;
8247;SDS011;4164;49.844;8.830;2022-07-29T09:57:38;10.47;;;2.90;;
8247;SDS011;4164;49.844;8.830;2022-07-29T10:02:42;5.43;;;2.83;;
8247;SDS011;4164;49.844;8.830;2022-07-29T10:05:20;5.67;;;3.40;;
8247;SDS011;4164;49.844;8.830;2022-07-29T10:07:51;3.33;;;2.90;;
8247;SDS011;4164;49.844;8.830;2022-07-29T10:10:22;3.77;;;3.20;;
8247;SDS011;4164;49.844;8.830;2022-07-29T10:12:56;9.33;;;3.67;;
8247;SDS011;4164;49.844;8.830;2022-07-29T10:15:27;3.97;;;3.10;;
8247;SDS011;4164;49.844;8.830;2022-07-29T10:17:54;3.47;;;3.00;;
8247;SDS011;4164;49.844;8.830;2022-07-29T10:20:21;5.77;;;3.33;;
8247;SDS011;4164;49.844;8.830;2022-07-29T10:22:48;4.53;;;3.30;;
8247;SDS011;4164;49.844;8.830;2022-07-29T10:25:16;6.50;;;3.50;;
8247;SDS011;4164;49.844;8.830;2022-07-29T10:27:42;10.23;;;3.73;;
8247;SDS011;4164;49.844;8.830;2022-07-29T10:30:09;4.10;;;3.03;;
8247;SDS011;4164;49.844;8.830;2022-07-29T10:32:39;4.67;;;3.20;;
8247;SDS011;4164;49.844;8.830;2022-07-29T10:40:45;4.83;;;3.60;;
8247;SDS011;4164;49.844;8.830;2022-07-29T10:43:53;3.33;;;3.03;;
8247;SDS011;4164;49.844;8.830;2022-07-29T10:46:21;5.77;;;3.30;;
8247;SDS011;4164;49.844;8.830;2022-07-29T10:51:52;3.93;;;3.53;;
8247;SDS011;4164;49.844;8.830;2022-07-29T10:54:36;4.13;;;3.10;;
8247;SDS011;4164;49.844;8.830;2022-07-29T10:59:41;4.20;;;3.50;;
8247;SDS011;4164;49.844;8.830;2022-07-29T11:04:59;6.73;;;3.57;;
8247;SDS011;4164;49.844;8.830;2022-07-29T11:07:26;5.40;;;3.17;;
8247;SDS011;4164;49.844;8.830;2022-07-29T11:15:04;4.63;;;3.27;;
8247;SDS011;4164;49.844;8.830;2022-07-29T11:20:35;5.07;;;3.47;;
8247;SDS011;4164;49.844;8.830;2022-07-29T11:23:25;3.40;;;2.83;;
8247;SDS011;4164;49.844;8.830;2022-07-29T11:31:40;7.00;;;4.50;;
8247;SDS011;4164;49.844;8.830;2022-07-29T11:34:21;6.47;;;3.47;;
8247;SDS011;4164;49.844;8.830;2022-07-29T11:39:41;5.07;;;3.10;;
8247;SDS011;4164;49.844;8.830;2022-07-29T11:50:15;3.63;;;3.23;;
8247;SDS011;4164;49.844;8.830;2022-07-29T11:52:43;3.30;;;2.90;;
8247;SDS011;4164;49.844;8.830;2022-07-29T11:55:18;11.27;;;3.33;;
8247;SDS011;4164;49.844;8.830;2022-07-29T11:57:48;4.23;;;3.20;;
8247;SDS011;4164;49.844;8.830;2022-07-29T12:00:25;5.00;;;3.43;;
8247;SDS011;4164;49.844;8.830;2022-07-29T12:02:53;4.83;;;3.60;;
8247;SDS011;4164;49.844;8.830;2022-07-29T12:05:20;4.43;;;3.37;;
8247;SDS011;4164;49.844;8.830;2022-07-29T12:07:46;3.83;;;3.27;;
8247;SDS011;4164;49.844;8.830;2022-07-29T12:10:13;4.13;;;3.63;;
8247;SDS011;4164;49.844;8.830;2022-07-29T12:12:39;4.27;;;3.30;;
8247;SDS011;4164;49.844;8.830;2022-07-29T12:15:14;4.10;;;3.27;;
8247;SDS011;4164;49.844;8.830;2022-07-29T12:17:48;4.00;;;3.23;;
8247;SDS011;4164;49.844;8.830;2022-07-29T12:20:21;6.17;;;3.90;;
8247;SDS011;4164;49.844;8.830;2022-07-29T12:22:51;5.30;;;3.53;;
8247;SDS011;4164;49.844;8.830;2022-07-29T12:25:18;5.40;;;3.37;;
8247;SDS011;4164;49.844;8.830;2022-07-29T12:27:44;5.13;;;3.77;;
8247;SDS011;4164;49.844;8.830;2022-07-29T12:30:12;4.07;;;3.43;;
8247;SDS011;4164;49.844;8.830;2022-07-29T12:32:43;5.37;;;3.63;;
8247;SDS011;4164;49.844;8.830;2022-07-29T12:35:11;6.13;;;3.27;;
8247;SDS011;4164;49.844;8.830;2022-07-29T12:37:42;6.37;;;3.30;;
8247;SDS011;4164;49.844;8.830;2022-07-29T12:40:09;6.80;;;3.50;;
8247;SDS011;4164;49.844;8.830;2022-07-29T12:42:37;3.90;;;3.57;;
8247;SDS011;4164;49.844;8.830;2022-07-29T12:45:03;4.47;;;3.43;;
8247;SDS011;4164;49.844;8.830;2022-07-29T12:47:29;4.97;;;3.40;;
8247;SDS011;4164;49.844;8.830;2022-07-29T12:50:08;7.43;;;3.67;;
8247;SDS011;4164;49.844;8.830;2022-07-29T12:52:36;5.00;;;3.60;;
8247;SDS011;4164;49.844;8.830;2022-07-29T12:55:02;6.20;;;3.80;;
8247;SDS011;4164;49.844;8.830;2022-07-29T12:57:28;5.10;;;3.57;;
8247;SDS011;4164;49.844;8.830;2022-07-29T13:02:34;4.10;;;3.70;;
8247;SDS011;4164;49.844;8.830;2022-07-29T13:05:00;3.60;;;3.30;;
8247;SDS011;4164;49.844;8.830;2022-07-29T13:07:27;4.90;;;3.70;;
8247;SDS011;4164;49.844;8.830;2022-07-29T13:09:57;6.07;;;3.33;;
8247;SDS011;4164;49.844;8.830;2022-07-29T13:12:36;4.97;;;3.43;;
8247;SDS011;4164;49.844;8.830;2022-07-29T13:15:11;6.38;;;3.28;;
8247;SDS011;4164;49.844;8.830;2022-07-29T13:17:39;3.95;;;3.03;;
8247;SDS011;4164;49.844;8.830;2022-07-29T13:20:08;7.88;;;3.80;;
8247;SDS011;4164;49.844;8.830;2022-07-29T13:22:37;5.35;;;3.20;;
8247;SDS011;4164;49.844;8.830;2022-07-29T13:25:03;8.73;;;3.20;;
8247;SDS011;4164;49.844;8.830;2022-07-29T13:27:32;10.18;;;3.30;;
8247;SDS011;4164;49.844;8.830;2022-07-29T13:30:00;6.00;;;3.90;;
8247;SDS011;4164;49.844;8.830;2022-07-29T13:32:29;8.83;;;3.60;;
8247;SDS011;4164;49.844;8.830;2022-07-29T13:34:56;5.57;;;3.70;;
8247;SDS011;4164;49.844;8.830;2022-07-29T13:37:22;10.00;;;3.70;;
8247;SDS011;4164;49.844;8.830;2022-07-29T13:39:48;6.40;;;3.80;;
8247;SDS011;4164;49.844;8.830;2022-07-29T13:42:14;5.87;;;3.80;;
8247;SDS011;4164;49.844;8.830;2022-07-29T13:44:40;6.17;;;3.80;;
8247;SDS011;4164;49.844;8.830;2022-07-29T13:47:06;4.30;;;3.77;;
8247;SDS011;4164;49.844;8.830;2022-07-29T13:49:32;6.57;;;3.63;;
8247;SDS011;4164;49.844;8.830;2022-07-29T13:51:58;3.87;;;3.40;;
8247;SDS011;4164;49.844;8.830;2022-07-29T13:54:24;5.07;;;3.30;;
8247;SDS011;4164;49.844;8.830;2022-07-29T13:56:49;4.20;;;3.23;;
8247;SDS011;4164;49.844;8.830;2022-07-29T13:59:16;6.03;;;3.57;;
8247;SDS011;4164;49.844;8.830;2022-07-29T14:01:41;6.57;;;3.67;;
8247;SDS011;4164;49.844;8.830;2022-07-29T14:04:07;3.47;;;3.17;;
8247;SDS011;4164;49.844;8.830;2022-07-29T14:06:34;5.33;;;3.43;;
8247;SDS011;4164;49.844;8.830;2022-07-29T14:09:00;3.77;;;3.47;;
8247;SDS011;4164;49.844;8.830;2022-07-29T14:11:26;8.17;;;3.40;;
8247;SDS011;4164;49.844;8.830;2022-07-29T14:13:51;5.97;;;3.77;;
8247;SDS011;4164;49.844;8.830;2022-07-29T14:16:17;5.13;;;3.60;;
8247;SDS011;4164;49.844;8.830;2022-07-29T14:18:42;4.27;;;3.87;;
8247;SDS011;4164;49.844;8.830;2022-07-29T14:21:08;5.77;;;3.63;;
8247;SDS011;4164;49.844;8.830;2022-07-29T14:23:34;4.03;;;3.47;;
8247;SDS011;4164;49.844;8.830;2022-07-29T14:26:00;4.80;;;3.40;;
8247;SDS011;4164;49.844;8.830;2022-07-29T14:28:25;3.77;;;3.47;;
8247;SDS011;4164;49.844;8.830;2022-07-29T14:30:51;4.40;;;3.23;;
8247;SDS011;4164;49.844;8.830;2022-07-29T14:33:16;3.80;;;3.10;;
8247;SDS011;4164;49.844;8.830;2022-07-29T14:35:42;3.67;;;2.93;;
8247;SDS011;4164;49.844;8.830;2022-07-29T14:38:08;4.60;;;3.33;;
8247;SDS011;4164;49.844;8.830;2022-07-29T14:40:34;4.77;;;3.20;;
8247;SDS011;4164;49.844;8.830;2022-07-29T14:42:59;6.93;;;3.20;;
8247;SDS011;4164;49.844;8.830;2022-07-29T14:45:25;5.13;;;3.63;;
8247;SDS011;4164;49.844;8.830;2022-07-29T14:47:52;7.70;;;3.30;;
8247;SDS011;4164;49.844;8.830;2022-07-29T14:50:18;4.60;;;3.37;;
8247;SDS011;4164;49.844;8.830;2022-07-29T14:52:44;3.57;;;3.27;;
8247;SDS011;4164;49.844;8.830;2022-07-29T14:55:09;7.00;;;3.40;;
8247;SDS011;4164;49.844;8.830;2022-07-29T14:57:35;9.43;;;3.40;;
8247;SDS011;4164;49.844;8.830;2022-07-29T15:00:01;5.07;;;3.67;;
8247;SDS011;4164;49.844;8.830;2022-07-29T15:02:28;5.27;;;3.27;;
8247;SDS011;4164;49.844;8.830;2022-07-29T15:04:53;11.37;;;3.80;;
8247;SDS011;4164;49.844;8.830;2022-07-29T15:07:19;6.77;;;3.93;;
8247;SDS011;4164;49.844;8.830;2022-07-29T15:09:44;9.17;;;4.07;;
8247;SDS011;4164;49.844;8.830;2022-07-29T15:12:10;6.63;;;4.07;;
8247;SDS011;4164;49.844;8.830;2022-07-29T15:14:36;5.80;;;3.73;;
8247;SDS011;4164;49.844;8.830;2022-07-29T15:17:02;5.17;;;3.80;;
8247;SDS011;4164;49.844;8.830;2022-07-29T15:19:28;4.07;;;3.67;;
8247;SDS011;4164;49.844;8.830;2022-07-29T15:21:53;5.80;;;3.73;;
8247;SDS011;4164;49.844;8.830;2022-07-29T15:24:19;7.50;;;4.07;;
8247;SDS011;4164;49.844;8.830;2022-07-29T15:26:45;4.80;;;3.80;;
8247;SDS011;4164;49.844;8.830;2022-07-29T15:29:11;4.33;;;3.67;;
8247;SDS011;4164;49.844;8.830;2022-07-29T15:31:37;14.70;;;3.87;;
8247;SDS011;4164;49.844;8.830;2022-07-29T15:34:03;4.43;;;3.23;;
8247;SDS011;4164;49.844;8.830;2022-07-29T15:36:28;4.47;;;3.70;;
8247;SDS011;4164;49.844;8.830;2022-07-29T15:38:55;4.83;;;3.47;;
8247;SDS011;4164;49.844;8.830;2022-07-29T15:41:21;5.27;;;3.57;;
8247;SDS011;4164;49.844;8.830;2022-07-29T15:43:47;7.33;;;3.60;;
8247;SDS011;4164;49.844;8.830;2022-07-29T15:46:13;5.60;;;3.27;;
8247;SDS011;4164;49.844;8.830;2022-07-29T15:48:58;4.10;;;3.73;;
8247;SDS011;4164;49.844;8.830;2022-07-29T15:51:24;6.17;;;3.60;;
8247;SDS011;4164;49.844;8.830;2022-07-29T15:53:50;5.40;;;3.30;;
8247;SDS011;4164;49.844;8.830;2022-07-29T15:56:15;3.50;;;3.20;;
8247;SDS011;4164;49.844;8.830;2022-07-29T15:58:41;8.10;;;3.97;;
8247;SDS011;4164;49.844;8.830;2022-07-29T16:01:07;4.00;;;3.60;;
8247;SDS011;4164;49.844;8.830;2022-07-29T16:03:33;7.37;;;3.87;;
8247;SDS011;4164;49.844;8.830;2022-07-29T16:05:58;4.93;;;3.83;;
8247;SDS011;4164;49.844;8.830;2022-07-29T16:08:24;5.13;;;3.60;;
8247;SDS011;4164;49.844;8.830;2022-07-29T16:10:49;5.10;;;3.70;;
8247;SDS011;4164;49.844;8.830;2022-07-29T16:13:18;6.13;;;3.73;;
8247;SDS011;4164;49.844;8.830;2022-07-29T16:15:43;4.47;;;3.43;;
8247;SDS011;4164;49.844;8.830;2022-07-29T16:18:09;5.03;;;3.50;;